Barton Hills, Michigan
Current Conditions -  °F | °C
As of 12:53 PM on Sunday 23 Nov 2014 (Local Time) from KARB Reporting Station
Few Clouds Few Clouds  
Wind Chill: 50°   Ceiling: Unl
Heat Index: 50°   Visibility: 10mi
Dew Point: 44°   Wind: 9mph
Humidity: 80%   Direction: 180°S
Pressure: 29.81"   Gusts: NA
Location:  42.3281°N, 83.7037°W
Report Text: KARB 231753Z 18008KT 10SM FEW095 10/07 A2981 RMK AO2 SLP098 60002 T01000067 10100 20067 58038
Loading
Personal Weather Stations






























Interactive Weather Map New forecast layout! Learn more

10-Day Weather Forecast

Advertisements
Track Severe Weather on mobile